createdAt,value
2023-04-09T00:00:30.885Z,0.4803
2023-04-09T00:01:32.527Z,0.4775
2023-04-09T00:02:34.134Z,0.4768
2023-04-09T00:03:35.975Z,0.4809
2023-04-09T00:04:37.512Z,0.4831
2023-04-09T00:05:39.045Z,0.4847
2023-04-09T00:06:40.729Z,0.4907
2023-04-09T00:07:44.498Z,0.4888
2023-04-09T00:08:44.001Z,0.4877
2023-04-09T00:09:45.795Z,0.4885
2023-04-09T00:10:47.419Z,0.4900
2023-04-09T00:11:49.014Z,0.4913
2023-04-09T00:12:50.658Z,0.4910
2023-04-09T00:13:52.355Z,0.4931
2023-04-09T00:14:53.949Z,0.4944
2023-04-09T00:15:55.639Z,0.4956
2023-04-09T00:16:57.327Z,0.4955
2023-04-09T00:17:58.941Z,0.4935
2023-04-09T00:19:00.566Z,0.4960
2023-04-09T00:20:02.230Z,0.4953
2023-04-09T00:21:03.874Z,0.4924
2023-04-09T00:22:05.538Z,0.4935
2023-04-09T00:23:07.217Z,0.4956
2023-04-09T00:24:08.741Z,0.4935
2023-04-09T00:25:10.451Z,0.4957
2023-04-09T00:26:12.178Z,0.4935
2023-04-09T00:27:13.870Z,0.4919
2023-04-09T00:28:15.471Z,0.4898
2023-04-09T00:29:17.208Z,0.4915
2023-04-09T00:30:18.800Z,0.4898
2023-04-09T00:31:20.877Z,0.4874
2023-04-09T00:32:22.075Z,0.4892
2023-04-09T00:33:23.652Z,0.4859
2023-04-09T00:34:25.336Z,0.4811
2023-04-09T00:35:26.974Z,0.4795
2023-04-09T00:36:28.728Z,0.4768
2023-04-09T00:37:30.315Z,0.4760
2023-04-09T00:38:31.999Z,0.4768
2023-04-09T00:39:33.621Z,0.4776
2023-04-09T00:40:35.255Z,0.4760
2023-04-09T00:41:37.009Z,0.4743
2023-04-09T00:42:38.590Z,0.4719
2023-04-09T00:43:40.274Z,0.4732
2023-04-09T00:44:41.810Z,0.4741
2023-04-09T00:45:43.536Z,0.4733
2023-04-09T00:46:45.106Z,0.4745
2023-04-09T00:47:47.383Z,0.4743
2023-04-09T00:48:48.510Z,0.4745
2023-04-09T00:49:50.179Z,0.4710
2023-04-09T00:50:51.748Z,0.4693
2023-04-09T00:51:53.387Z,0.4677
2023-04-09T00:52:55.154Z,0.4654
2023-04-09T00:53:56.788Z,0.4678
2023-04-09T00:54:58.439Z,0.4670
2023-04-09T00:56:00.031Z,0.4668
2023-04-09T00:57:01.678Z,0.4641
2023-04-09T00:58:03.432Z,0.4619
2023-04-09T00:59:05.370Z,0.4593
2023-04-09T01:00:06.718Z,0.4586
2023-04-09T01:01:08.398Z,0.4558
2023-04-09T01:02:10.922Z,0.4529
2023-04-09T01:03:12.029Z,0.4572
2023-04-09T01:04:13.346Z,0.4723
2023-04-09T01:05:14.928Z,0.4844
2023-04-09T01:06:16.538Z,0.4924
2023-04-09T01:07:18.281Z,0.4965
2023-04-09T01:08:20.103Z,0.4897
2023-04-09T01:09:21.565Z,0.4825
2023-04-09T01:10:23.206Z,0.4862
2023-04-09T01:11:24.982Z,0.4879
2023-04-09T01:12:26.511Z,0.4854
2023-04-09T01:13:28.223Z,0.4804
2023-04-09T01:14:29.940Z,0.4742
2023-04-09T01:15:31.524Z,0.4745
2023-04-09T01:16:33.136Z,0.4760
2023-04-09T01:17:34.892Z,0.4772
2023-04-09T01:18:36.505Z,0.4789
2023-04-09T01:19:38.124Z,0.4814
2023-04-09T01:20:39.828Z,0.4790
2023-04-09T01:21:41.423Z,0.4737
2023-04-09T01:22:43.078Z,0.4715
2023-04-09T01:23:44.791Z,0.4706
2023-04-09T01:24:46.398Z,0.4713
2023-04-09T01:25:48.068Z,0.4722
2023-04-09T01:26:49.701Z,0.4718
2023-04-09T01:27:51.345Z,0.4708
2023-04-09T01:28:53.459Z,0.4715
2023-04-09T01:29:54.675Z,0.4693
2023-04-09T01:30:56.455Z,0.4664
2023-04-09T01:31:57.966Z,0.4649
2023-04-09T01:33:00.036Z,0.4657
2023-04-09T01:34:01.414Z,0.4630
2023-04-09T01:35:02.905Z,0.4611
2023-04-09T01:36:04.719Z,0.4601
2023-04-09T01:37:06.294Z,0.4579
2023-04-09T01:38:07.898Z,0.4551
2023-04-09T01:39:09.611Z,0.4544
2023-04-09T01:40:11.340Z,0.4518
2023-04-09T01:41:12.763Z,0.4497
2023-04-09T01:42:14.450Z,0.4518
2023-04-09T01:43:16.089Z,0.4487
2023-04-09T01:44:17.733Z,0.4489
2023-04-09T01:45:19.460Z,0.4502
2023-04-09T01:46:21.134Z,0.4509
2023-04-09T01:47:22.701Z,0.4516
2023-04-09T01:48:24.355Z,0.4514
2023-04-09T01:49:26.155Z,0.4503
2023-04-09T01:50:27.827Z,0.4494
2023-04-09T01:51:29.362Z,0.4487
2023-04-09T01:52:31.778Z,0.4489
2023-04-09T01:53:32.756Z,0.4482
2023-04-09T01:54:34.509Z,0.4483
2023-04-09T01:55:36.046Z,0.4456
2023-04-09T01:56:37.760Z,0.4454
2023-04-09T01:57:39.326Z,0.4456
2023-04-09T01:58:41.040Z,0.4461
2023-04-09T01:59:42.646Z,0.4450
2023-04-09T02:00:45.286Z,0.4444
2023-04-09T02:01:46.966Z,0.4445
2023-04-09T02:02:47.749Z,0.4421
2023-04-09T02:03:49.389Z,0.4416
2023-04-09T02:04:51.165Z,0.4417
2023-04-09T02:05:52.939Z,0.4435
2023-04-09T02:06:54.257Z,0.4436
2023-04-09T02:07:55.895Z,0.4441
2023-04-09T02:08:57.613Z,0.4415
2023-04-09T02:09:59.283Z,0.4584
2023-04-09T02:11:00.840Z,0.4805
2023-04-09T02:12:02.542Z,0.4953
2023-04-09T02:13:04.157Z,0.5028
2023-04-09T02:14:05.990Z,0.5048
2023-04-09T02:15:07.595Z,0.5127
2023-04-09T02:16:09.178Z,0.5074
2023-04-09T02:17:10.796Z,0.5024
2023-04-09T02:18:12.451Z,0.5016
2023-04-09T02:19:14.076Z,0.5019
2023-04-09T02:20:15.820Z,0.5019
2023-04-09T02:21:17.353Z,0.5043
2023-04-09T02:22:19.019Z,0.5040
2023-04-09T02:23:20.728Z,0.5039
2023-04-09T02:24:22.447Z,0.5038
2023-04-09T02:25:24.078Z,0.5027
2023-04-09T02:26:25.642Z,0.4988
2023-04-09T02:27:27.406Z,0.4953
2023-04-09T02:28:29.049Z,0.4907
2023-04-09T02:29:30.649Z,0.4888
2023-04-09T02:30:32.343Z,0.4895
2023-04-09T02:31:34.023Z,0.4918
2023-04-09T02:32:35.744Z,0.4934
2023-04-09T02:33:37.353Z,0.4914
2023-04-09T02:34:39.059Z,0.4916
2023-04-09T02:35:40.670Z,0.4950
2023-04-09T02:36:42.334Z,0.4923
2023-04-09T02:37:44.014Z,0.4901
2023-04-09T02:38:45.604Z,0.4888
2023-04-09T02:39:47.406Z,0.4831
2023-04-09T02:40:48.948Z,0.4822
2023-04-09T02:41:50.642Z,0.4827
2023-04-09T02:42:52.172Z,0.4785
2023-04-09T02:43:53.910Z,0.4769
2023-04-09T02:44:55.577Z,0.4750
2023-04-09T02:45:57.459Z,0.4727
2023-04-09T02:46:58.780Z,0.4743
2023-04-09T02:48:00.501Z,0.4747
2023-04-09T02:49:02.858Z,0.4748
2023-04-09T02:50:03.897Z,0.4735
2023-04-09T02:51:05.597Z,0.4725
2023-04-09T02:52:07.114Z,0.4722
2023-04-09T02:53:08.894Z,0.4712
2023-04-09T02:54:10.412Z,0.4675
2023-04-09T02:55:12.069Z,0.4658
2023-04-09T02:56:13.815Z,0.4651
2023-04-09T02:57:15.261Z,0.4640
2023-04-09T02:58:16.992Z,0.4621
2023-04-09T02:59:18.727Z,0.4597
2023-04-09T03:00:20.348Z,0.4619
2023-04-09T03:01:22.135Z,0.4614
2023-04-09T03:02:23.818Z,0.4625
2023-04-09T03:03:26.040Z,0.4600
2023-04-09T03:04:26.980Z,0.4594
2023-04-09T03:05:28.520Z,0.4596
2023-04-09T03:06:30.294Z,0.4586
2023-04-09T03:07:31.856Z,0.4566
2023-04-09T03:08:33.504Z,0.4549
2023-04-09T03:09:35.157Z,0.4506
2023-04-09T03:10:36.820Z,0.4469
2023-04-09T03:11:38.536Z,0.4466
2023-04-09T03:12:40.128Z,0.4471
2023-04-09T03:13:41.820Z,0.4448
2023-04-09T03:14:43.483Z,0.4455
2023-04-09T03:15:45.125Z,0.4436
2023-04-09T03:16:46.781Z,0.4439
2023-04-09T03:17:48.433Z,0.4470
2023-04-09T03:18:50.256Z,0.4470
2023-04-09T03:19:51.686Z,0.4473
2023-04-09T03:20:53.341Z,0.4462
2023-04-09T03:21:55.031Z,0.4487
2023-04-09T03:22:56.638Z,0.4513
2023-04-09T03:23:58.321Z,0.4504
2023-04-09T03:24:59.983Z,0.4499
2023-04-09T03:26:01.616Z,0.4522
2023-04-09T03:27:03.362Z,0.4544
2023-04-09T03:28:04.876Z,0.4556
2023-04-09T03:29:06.616Z,0.4548
2023-04-09T03:30:08.235Z,0.4539
2023-04-09T03:31:09.964Z,0.4527
2023-04-09T03:32:11.545Z,0.4501
2023-04-09T03:33:13.187Z,0.4478
2023-04-09T03:34:14.836Z,0.4455
2023-04-09T03:35:16.464Z,0.4435
2023-04-09T03:36:18.091Z,0.4432
2023-04-09T03:37:19.818Z,0.4445
2023-04-09T03:38:21.408Z,0.4453
2023-04-09T03:39:23.121Z,0.4425
2023-04-09T03:40:24.740Z,0.4432
2023-04-09T03:41:26.469Z,0.4462
2023-04-09T03:42:27.998Z,0.4462
2023-04-09T03:43:29.703Z,0.4475
2023-04-09T03:44:31.954Z,0.4466
2023-04-09T03:45:33.017Z,0.4446
2023-04-09T03:46:34.750Z,0.4452
2023-04-09T03:47:36.354Z,0.4437
2023-04-09T03:48:38.009Z,0.4404
2023-04-09T03:49:39.614Z,0.4400
2023-04-09T03:50:41.252Z,0.4400
2023-04-09T03:51:42.937Z,0.4394
2023-04-09T03:52:44.651Z,0.4380
2023-04-09T03:53:46.335Z,0.4350
2023-04-09T03:54:47.962Z,0.4330
2023-04-09T03:55:49.626Z,0.4305
2023-04-09T03:56:52.068Z,0.4322
2023-04-09T03:57:52.934Z,0.4304
2023-04-09T03:58:54.881Z,0.4286
2023-04-09T03:59:56.248Z,0.4273
2023-04-09T04:00:57.769Z,0.4248
2023-04-09T04:01:59.549Z,0.4264
2023-04-09T04:03:01.372Z,0.4252
2023-04-09T04:04:02.941Z,0.4250
2023-04-09T04:05:04.493Z,0.4236
2023-04-09T04:06:06.160Z,0.4222
2023-04-09T04:07:07.804Z,0.4200
2023-04-09T04:08:09.423Z,0.4182
2023-04-09T04:09:11.023Z,0.4193
2023-04-09T04:10:12.794Z,0.4193
2023-04-09T04:11:14.374Z,0.4189
2023-04-09T04:12:16.020Z,0.4183
2023-04-09T04:13:17.707Z,0.4188
2023-04-09T04:14:19.355Z,0.4170
2023-04-09T04:15:21.044Z,0.4148
2023-04-09T04:16:22.697Z,0.4151
2023-04-09T04:17:24.341Z,0.4135
2023-04-09T04:18:25.957Z,0.4134
2023-04-09T04:19:27.614Z,0.4139
2023-04-09T04:20:29.244Z,0.4155
2023-04-09T04:21:30.919Z,0.4167
2023-04-09T04:22:32.602Z,0.4159
2023-04-09T04:23:34.250Z,0.4151
2023-04-09T04:24:35.901Z,0.4131
2023-04-09T04:25:37.541Z,0.4141
2023-04-09T04:26:39.229Z,0.4169
2023-04-09T04:27:40.893Z,0.4200
2023-04-09T04:28:42.556Z,0.4188
2023-04-09T04:29:44.141Z,0.4166
2023-04-09T04:30:45.867Z,0.4194
2023-04-09T04:31:47.497Z,0.4211
2023-04-09T04:32:49.097Z,0.4225
2023-04-09T04:33:50.782Z,0.4240
2023-04-09T04:34:52.425Z,0.4215
2023-04-09T04:35:54.144Z,0.4190
2023-04-09T04:36:55.633Z,0.4180
2023-04-09T04:37:57.399Z,0.4163
2023-04-09T04:38:59.067Z,0.4153
2023-04-09T04:40:00.666Z,0.4166
2023-04-09T04:41:02.306Z,0.4164
2023-04-09T04:42:03.947Z,0.4159
2023-04-09T04:43:05.665Z,0.4162
2023-04-09T04:44:07.311Z,0.4167
2023-04-09T04:45:09.052Z,0.4165
2023-04-09T04:46:10.622Z,0.4157
2023-04-09T04:47:12.244Z,0.4145
2023-04-09T04:48:13.917Z,0.4109
2023-04-09T04:49:16.324Z,0.4117
2023-04-09T04:50:17.256Z,0.4121
2023-04-09T04:51:18.841Z,0.4123
2023-04-09T04:52:20.475Z,0.4143
2023-04-09T04:53:22.139Z,0.4152
2023-04-09T04:54:23.842Z,0.4151
2023-04-09T04:55:26.505Z,0.4123
2023-04-09T04:56:27.114Z,0.4139
2023-04-09T04:57:28.939Z,0.4181
2023-04-09T04:58:30.423Z,0.4193
2023-04-09T04:59:32.200Z,0.4188
2023-04-09T05:00:33.734Z,0.4174
2023-04-09T05:01:35.418Z,0.4159
2023-04-09T05:02:37.186Z,0.4126
2023-04-09T05:03:38.779Z,0.4134
2023-04-09T05:04:40.392Z,0.4157
2023-04-09T05:05:42.002Z,0.4179
2023-04-09T05:06:43.662Z,0.4224
2023-04-09T05:07:45.306Z,0.4218
2023-04-09T05:08:47.009Z,0.4205
2023-04-09T05:09:48.626Z,0.4200
2023-04-09T05:10:50.220Z,0.4186
2023-04-09T05:11:51.930Z,0.4225
2023-04-09T05:12:53.611Z,0.4234
2023-04-09T05:13:55.186Z,0.4212
2023-04-09T05:14:56.986Z,0.4190
2023-04-09T05:15:58.630Z,0.4182
2023-04-09T05:17:00.216Z,0.4167
2023-04-09T05:18:01.925Z,0.4171
2023-04-09T05:19:03.528Z,0.4157
2023-04-09T05:20:05.949Z,0.4155
2023-04-09T05:21:07.457Z,0.4156
2023-04-09T05:22:08.464Z,0.4150
2023-04-09T05:23:10.082Z,0.4138
2023-04-09T05:24:11.737Z,0.4142
2023-04-09T05:25:13.410Z,0.4128
2023-04-09T05:26:14.995Z,0.4122
2023-04-09T05:27:16.722Z,0.4121
2023-04-09T05:28:18.434Z,0.4106
2023-04-09T05:29:20.058Z,0.4128
2023-04-09T05:30:21.724Z,0.4172
2023-04-09T05:31:23.257Z,0.4201
2023-04-09T05:32:25.221Z,0.4249
2023-04-09T05:33:26.679Z,0.4282
2023-04-09T05:34:28.265Z,0.4270
2023-04-09T05:35:29.983Z,0.4250
2023-04-09T05:36:31.577Z,0.4261
2023-04-09T05:37:33.499Z,0.4255
2023-04-09T05:38:34.965Z,0.4252
2023-04-09T05:39:37.502Z,0.4264
2023-04-09T05:40:38.298Z,0.4269
2023-04-09T05:41:39.857Z,0.4258
2023-04-09T05:42:41.537Z,0.4264
2023-04-09T05:43:43.439Z,0.4275
2023-04-09T05:44:44.857Z,0.4258
2023-04-09T05:45:46.718Z,0.4258
2023-04-09T05:46:48.189Z,0.4263
2023-04-09T05:47:49.824Z,0.4256
2023-04-09T05:48:51.595Z,0.4266
2023-04-09T05:49:53.246Z,0.4269
2023-04-09T05:50:55.841Z,0.4255
2023-04-09T05:51:56.517Z,0.4248
2023-04-09T05:52:58.191Z,0.4246
2023-04-09T05:53:59.858Z,0.4239
2023-04-09T05:55:01.492Z,0.4263
2023-04-09T05:56:03.126Z,0.4252
2023-04-09T05:57:04.811Z,0.4252
2023-04-09T05:58:06.499Z,0.4245
2023-04-09T05:59:07.995Z,0.4252
2023-04-09T06:00:10.102Z,0.4233
2023-04-09T06:01:11.356Z,0.4238
2023-04-09T06:02:13.004Z,0.4247
2023-04-09T06:03:14.777Z,0.4234
2023-04-09T06:04:16.406Z,0.4235
2023-04-09T06:05:18.581Z,0.4222
2023-04-09T06:06:19.632Z,0.4203
2023-04-09T06:07:21.241Z,0.4187
2023-04-09T06:08:22.958Z,0.4170
2023-04-09T06:09:24.612Z,0.4182
2023-04-09T06:10:26.537Z,0.4198
2023-04-09T06:11:28.009Z,0.4180
2023-04-09T06:12:29.911Z,0.4154
2023-04-09T06:13:31.202Z,0.4135
2023-04-09T06:14:32.882Z,0.4131
2023-04-09T06:15:34.555Z,0.4130
2023-04-09T06:16:36.130Z,0.4137
2023-04-09T06:17:37.804Z,0.4138
2023-04-09T06:18:39.611Z,0.4132
2023-04-09T06:19:41.170Z,0.4160
2023-04-09T06:20:42.911Z,0.4180
2023-04-09T06:21:44.297Z,0.4182
2023-04-09T06:22:45.987Z,0.4167
2023-04-09T06:23:47.642Z,0.4170
2023-04-09T06:24:49.279Z,0.4180
2023-04-09T06:25:50.972Z,0.4186
2023-04-09T06:26:52.607Z,0.4178
2023-04-09T06:27:54.212Z,0.4176
2023-04-09T06:28:55.877Z,0.4179
2023-04-09T06:29:57.550Z,0.4182
2023-04-09T06:30:59.300Z,0.4177
2023-04-09T06:32:00.786Z,0.4171
2023-04-09T06:33:02.572Z,0.4168
2023-04-09T06:34:04.103Z,0.4159
2023-04-09T06:35:05.826Z,0.4156
2023-04-09T06:36:08.484Z,0.4168
2023-04-09T06:37:09.021Z,0.4204
2023-04-09T06:38:11.362Z,0.4215
2023-04-09T06:39:13.168Z,0.4237
2023-04-09T06:40:14.071Z,0.4217
2023-04-09T06:41:15.930Z,0.4215
2023-04-09T06:42:17.373Z,0.4205
2023-04-09T06:43:18.964Z,0.4179
2023-04-09T06:44:20.670Z,0.4171
2023-04-09T06:45:22.247Z,0.4187
2023-04-09T06:46:24.033Z,0.4216
2023-04-09T06:47:25.621Z,0.4211
2023-04-09T06:48:27.930Z,0.4184
2023-04-09T06:49:28.893Z,0.4189
2023-04-09T06:50:30.557Z,0.4195
2023-04-09T06:51:32.541Z,0.4191
2023-04-09T06:52:33.937Z,0.4185
2023-04-09T06:53:35.519Z,0.4188
2023-04-09T06:54:37.991Z,0.4173
2023-04-09T06:55:38.885Z,0.4151
2023-04-09T06:56:40.962Z,0.4146
2023-04-09T06:57:42.143Z,0.4149
2023-04-09T06:58:43.837Z,0.4141
2023-04-09T06:59:45.486Z,0.4133
2023-04-09T07:00:47.089Z,0.4125
2023-04-09T07:01:49.385Z,0.4125
2023-04-09T07:02:50.673Z,0.4133
2023-04-09T07:03:52.625Z,0.4145
2023-04-09T07:04:53.729Z,0.4157
2023-04-09T07:05:55.432Z,0.4151
2023-04-09T07:06:58.150Z,0.4157
2023-04-09T07:07:58.703Z,0.4149
2023-04-09T07:09:00.461Z,0.4142
2023-04-09T07:10:02.019Z,0.4139
2023-04-09T07:11:03.669Z,0.4119
2023-04-09T07:12:05.386Z,0.4122
2023-04-09T07:13:07.495Z,0.4123
2023-04-09T07:14:08.625Z,0.4116
2023-04-09T07:15:10.318Z,0.4105
2023-04-09T07:16:11.943Z,0.4124
2023-04-09T07:17:13.634Z,0.4116
2023-04-09T07:18:15.265Z,0.4104
2023-04-09T07:19:16.777Z,0.4101
2023-04-09T07:20:18.566Z,0.4096
2023-04-09T07:21:20.165Z,0.4102
2023-04-09T07:22:22.128Z,0.4132
2023-04-09T07:23:23.577Z,0.4164
2023-04-09T07:24:25.301Z,0.4144
2023-04-09T07:25:26.778Z,0.4145
2023-04-09T07:26:28.509Z,0.4152
2023-04-09T07:27:30.101Z,0.4149
2023-04-09T07:28:31.757Z,0.4168
2023-04-09T07:29:33.586Z,0.4181
2023-04-09T07:30:35.013Z,0.4188
2023-04-09T07:31:36.619Z,0.4212
2023-04-09T07:32:38.444Z,0.4225
2023-04-09T07:33:39.957Z,0.4237
2023-04-09T07:34:41.597Z,0.4237
2023-04-09T07:35:43.216Z,0.4258
2023-04-09T07:36:44.954Z,0.4252
2023-04-09T07:37:47.003Z,0.4265
2023-04-09T07:38:48.551Z,0.4300
2023-04-09T07:39:49.888Z,0.4312
2023-04-09T07:40:51.902Z,0.4300
2023-04-09T07:41:53.148Z,0.4300
2023-04-09T07:42:54.834Z,0.4289
2023-04-09T07:43:56.565Z,0.4288
2023-04-09T07:44:58.250Z,0.4298
2023-04-09T07:45:59.853Z,0.4317
2023-04-09T07:47:01.557Z,0.4330
2023-04-09T07:48:03.510Z,0.4328
2023-04-09T07:49:04.943Z,0.4303
2023-04-09T07:50:06.351Z,0.4288
2023-04-09T07:51:08.934Z,0.4280
2023-04-09T07:52:09.666Z,0.4275
2023-04-09T07:53:12.004Z,0.4259
2023-04-09T07:54:13.094Z,0.4250
2023-04-09T07:55:15.154Z,0.4262
2023-04-09T07:56:16.223Z,0.4280
2023-04-09T07:57:17.869Z,0.4286
2023-04-09T07:58:19.613Z,0.4277
2023-04-09T07:59:21.217Z,0.4290
2023-04-09T08:00:22.856Z,0.4269
2023-04-09T08:01:24.508Z,0.4263
2023-04-09T08:02:26.364Z,0.4274
2023-04-09T08:03:28.115Z,0.4269
2023-04-09T08:04:29.487Z,0.4262
2023-04-09T08:05:31.142Z,0.4258
2023-04-09T08:06:32.737Z,0.4248
2023-04-09T08:07:34.482Z,0.4271
2023-04-09T08:08:36.103Z,0.4284
2023-04-09T08:09:37.761Z,0.4283
2023-04-09T08:10:39.368Z,0.4281
2023-04-09T08:11:40.984Z,0.4279
2023-04-09T08:12:42.706Z,0.4283
2023-04-09T08:13:44.622Z,0.4282
2023-04-09T08:14:45.940Z,0.4308
2023-04-09T08:15:47.635Z,0.4307
2023-04-09T08:16:49.372Z,0.4307
2023-04-09T08:17:51.497Z,0.4319
2023-04-09T08:18:52.932Z,0.4344
2023-04-09T08:19:54.586Z,0.4350
2023-04-09T08:20:55.839Z,0.4348
2023-04-09T08:21:57.567Z,0.4347
2023-04-09T08:22:59.207Z,0.4350
2023-04-09T08:24:00.833Z,0.4345
2023-04-09T08:25:03.537Z,0.4318
2023-04-09T08:26:04.073Z,0.4337
2023-04-09T08:27:05.748Z,0.4336
2023-04-09T08:28:07.410Z,0.4347
2023-04-09T08:29:09.109Z,0.4347
2023-04-09T08:30:10.730Z,0.4348
2023-04-09T08:31:12.448Z,0.4373
2023-04-09T08:32:14.045Z,0.4388
2023-04-09T08:33:15.641Z,0.4438
2023-04-09T08:34:17.584Z,0.4448
2023-04-09T08:35:19.058Z,0.4434
2023-04-09T08:36:21.593Z,0.4412
2023-04-09T08:37:22.419Z,0.4402
2023-04-09T08:38:24.094Z,0.4411
2023-04-09T08:39:25.792Z,0.4394
2023-04-09T08:40:27.581Z,0.4379
2023-04-09T08:41:28.944Z,0.4375
2023-04-09T08:42:30.545Z,0.4357
2023-04-09T08:43:52.531Z,0.4354
2023-04-09T08:44:33.963Z,0.4362
2023-04-09T08:45:35.604Z,0.4352
2023-04-09T08:46:37.147Z,0.4327
2023-04-09T08:47:38.934Z,0.4326
2023-04-09T08:48:40.586Z,0.4353
2023-04-09T08:49:43.034Z,0.4342
2023-04-09T08:50:43.767Z,0.4354
2023-04-09T08:51:45.450Z,0.4354
2023-04-09T08:52:47.132Z,0.4342
2023-04-09T08:53:48.723Z,0.4358
2023-04-09T08:54:50.447Z,0.4357
2023-04-09T08:55:53.152Z,0.4341
2023-04-09T08:56:53.812Z,0.4341
2023-04-09T08:57:56.094Z,0.4353
2023-04-09T08:58:57.139Z,0.4329
2023-04-09T08:59:59.121Z,0.4331
2023-04-09T09:01:00.488Z,0.4340
2023-04-09T09:02:02.087Z,0.4319
2023-04-09T09:03:03.824Z,0.4310
2023-04-09T09:04:05.380Z,0.4285
2023-04-09T09:05:07.163Z,0.4281
2023-04-09T09:06:08.646Z,0.4271
2023-04-09T09:07:10.376Z,0.4274
2023-04-09T09:08:12.607Z,0.4279
2023-04-09T09:09:13.576Z,0.4291
2023-04-09T09:10:15.714Z,0.4283
2023-04-09T09:11:16.933Z,0.4297
2023-04-09T09:12:18.654Z,0.4285
2023-04-09T09:13:20.266Z,0.4279
2023-04-09T09:14:21.947Z,0.4266
2023-04-09T09:15:23.714Z,0.4268
2023-04-09T09:16:25.187Z,0.4271
2023-04-09T09:17:26.947Z,0.4273
2023-04-09T09:18:28.521Z,0.4275
2023-04-09T09:19:30.656Z,0.4258
2023-04-09T09:20:32.326Z,0.4245
2023-04-09T09:21:33.591Z,0.4256
2023-04-09T09:22:35.148Z,0.4263
2023-04-09T09:23:36.880Z,0.4265
2023-04-09T09:24:38.494Z,0.4261
2023-04-09T09:25:40.128Z,0.4265
2023-04-09T09:26:41.850Z,0.4260
2023-04-09T09:27:43.402Z,0.4250
2023-04-09T09:28:45.050Z,0.4239
2023-04-09T09:29:46.714Z,0.4242
2023-04-09T09:30:49.526Z,0.4252
2023-04-09T09:31:50.079Z,0.4290
2023-04-09T09:32:51.765Z,0.4311
2023-04-09T09:33:53.308Z,0.4313
2023-04-09T09:34:54.874Z,0.4294
2023-04-09T09:35:56.730Z,0.4295
2023-04-09T09:36:58.268Z,0.4312
2023-04-09T09:37:59.954Z,0.4377
2023-04-09T09:39:01.586Z,0.4389
2023-04-09T09:40:03.180Z,0.4381
2023-04-09T09:41:04.878Z,0.4363
2023-04-09T09:42:06.482Z,0.4345
2023-04-09T09:43:08.205Z,0.4365
2023-04-09T09:44:09.701Z,0.4377
2023-04-09T09:45:11.454Z,0.4383
2023-04-09T09:46:13.231Z,0.4382
2023-04-09T09:47:14.836Z,0.4391
2023-04-09T09:48:16.501Z,0.4382
2023-04-09T09:49:18.112Z,0.4399
2023-04-09T09:50:19.693Z,0.4420
2023-04-09T09:51:21.394Z,0.4428
2023-04-09T09:52:23.084Z,0.4427
2023-04-09T09:53:24.665Z,0.4414
2023-04-09T09:54:26.365Z,0.4412
2023-04-09T09:55:28.144Z,0.4419
2023-04-09T09:56:29.792Z,0.4416
2023-04-09T09:57:31.421Z,0.4432
2023-04-09T09:58:33.094Z,0.4438
2023-04-09T09:59:34.674Z,0.4438
2023-04-09T10:00:36.359Z,0.4432
2023-04-09T10:01:38.148Z,0.4449
2023-04-09T10:02:39.699Z,0.4439
2023-04-09T10:03:41.372Z,0.4419
2023-04-09T10:04:43.068Z,0.4415
2023-04-09T10:05:44.583Z,0.4410
2023-04-09T10:06:46.354Z,0.4427
2023-04-09T10:07:47.885Z,0.4445
2023-04-09T10:08:49.710Z,0.4440
2023-04-09T10:09:51.214Z,0.4443
2023-04-09T10:10:52.991Z,0.4427
2023-04-09T10:11:54.670Z,0.4436
2023-04-09T10:12:56.476Z,0.4477
2023-04-09T10:13:57.795Z,0.4536
2023-04-09T10:14:59.510Z,0.4534
2023-04-09T10:16:01.144Z,0.4547
2023-04-09T10:17:02.856Z,0.4565
2023-04-09T10:18:04.475Z,0.4559
2023-04-09T10:19:06.075Z,0.4547
2023-04-09T10:20:07.722Z,0.4532
2023-04-09T10:21:09.369Z,0.4535
2023-04-09T10:22:11.052Z,0.4526
2023-04-09T10:23:13.215Z,0.4521
2023-04-09T10:24:14.278Z,0.4528
2023-04-09T10:25:15.984Z,0.4543
2023-04-09T10:26:17.716Z,0.4544
2023-04-09T10:27:19.390Z,0.4555
2023-04-09T10:28:20.963Z,0.4552
2023-04-09T10:29:22.650Z,0.4572
2023-04-09T10:30:24.220Z,0.4561
2023-04-09T10:31:25.908Z,0.4540
2023-04-09T10:32:28.604Z,0.4517
2023-04-09T10:33:29.245Z,0.4535
2023-04-09T10:34:30.939Z,0.4562
2023-04-09T10:35:32.475Z,0.4570
2023-04-09T10:36:34.165Z,0.4593
2023-04-09T10:37:35.873Z,0.4637
2023-04-09T10:38:37.471Z,0.4651
2023-04-09T10:39:39.161Z,0.4643
2023-04-09T10:40:40.735Z,0.4639
2023-04-09T10:41:42.442Z,0.4655
2023-04-09T10:42:44.143Z,0.4672
2023-04-09T10:43:45.751Z,0.4670
2023-04-09T10:44:47.415Z,0.4662
2023-04-09T10:45:49.061Z,0.4639
2023-04-09T10:46:50.803Z,0.4634
2023-04-09T10:47:52.842Z,0.4645
2023-04-09T10:48:54.131Z,0.4675
2023-04-09T10:49:55.708Z,0.4707
2023-04-09T10:50:57.322Z,0.4708
2023-04-09T10:51:59.000Z,0.4693
2023-04-09T10:53:00.735Z,0.4679
2023-04-09T10:54:02.298Z,0.4665
2023-04-09T10:55:03.913Z,0.4671
2023-04-09T10:56:05.562Z,0.4679
2023-04-09T10:57:07.307Z,0.4674
2023-04-09T10:58:11.296Z,0.4651
2023-04-09T10:59:10.595Z,0.4639
2023-04-09T11:00:12.541Z,0.4638
2023-04-09T11:01:13.851Z,0.4623
2023-04-09T11:02:15.564Z,0.4630
2023-04-09T11:03:17.370Z,0.4651
2023-04-09T11:04:18.648Z,0.4659
2023-04-09T11:05:20.320Z,0.4660
2023-04-09T11:06:21.984Z,0.4643
2023-04-09T11:07:23.692Z,0.4625
2023-04-09T11:08:25.313Z,0.4660
2023-04-09T11:09:26.910Z,0.4648
2023-04-09T11:10:28.578Z,0.4655
2023-04-09T11:11:30.241Z,0.4663
2023-04-09T11:12:31.878Z,0.4661
2023-04-09T11:13:33.541Z,0.4653
2023-04-09T11:14:35.180Z,0.4637
2023-04-09T11:15:36.826Z,0.4620
2023-04-09T11:16:38.664Z,0.4632
2023-04-09T11:17:40.277Z,0.4622
2023-04-09T11:18:42.172Z,0.4625
2023-04-09T11:19:43.504Z,0.4611
2023-04-09T11:20:45.078Z,0.4605
2023-04-09T11:21:46.817Z,0.4579
2023-04-09T11:22:48.419Z,0.4580
2023-04-09T11:23:50.155Z,0.4613
2023-04-09T11:24:51.770Z,0.4601
2023-04-09T11:25:53.368Z,0.4604
2023-04-09T11:26:55.092Z,0.4623
2023-04-09T11:27:56.647Z,0.4606
2023-04-09T11:28:59.145Z,0.4609
2023-04-09T11:30:00.134Z,0.4603
2023-04-09T11:31:01.794Z,0.4611
2023-04-09T11:32:03.262Z,0.4620
2023-04-09T11:33:05.129Z,0.4602
2023-04-09T11:34:06.667Z,0.4585
2023-04-09T11:35:08.243Z,0.4566
2023-04-09T11:36:09.854Z,0.4568
2023-04-09T11:37:11.546Z,0.4579
2023-04-09T11:38:14.048Z,0.4584
2023-04-09T11:39:15.145Z,0.4576
2023-04-09T11:40:16.540Z,0.4600
2023-04-09T11:41:18.188Z,0.4590
2023-04-09T11:42:19.755Z,0.4596
2023-04-09T11:43:21.459Z,0.4579
2023-04-09T11:44:23.701Z,0.4610
2023-04-09T11:45:24.722Z,0.4621
2023-04-09T11:46:27.456Z,0.4616
2023-04-09T11:47:28.045Z,0.4631
2023-04-09T11:48:29.784Z,0.4642
2023-04-09T11:49:32.245Z,0.4656
2023-04-09T11:50:33.027Z,0.4657
2023-04-09T11:51:34.749Z,0.4684
2023-04-09T11:52:36.452Z,0.4703
2023-04-09T11:53:38.073Z,0.4699
2023-04-09T11:54:39.740Z,0.4693
2023-04-09T11:55:41.378Z,0.4694
2023-04-09T11:56:43.075Z,0.4691
2023-04-09T11:57:44.681Z,0.4708
2023-04-09T11:58:46.327Z,0.4717
2023-04-09T11:59:48.129Z,0.4725
2023-04-09T12:00:49.676Z,0.4746
2023-04-09T12:01:51.515Z,0.4761
2023-04-09T12:02:53.301Z,0.4779
2023-04-09T12:03:54.675Z,0.4789
2023-04-09T12:04:56.620Z,0.4803
2023-04-09T12:05:57.764Z,0.4828
2023-04-09T12:06:59.482Z,0.4828
2023-04-09T12:08:01.067Z,0.4805
2023-04-09T12:09:02.831Z,0.4781
2023-04-09T12:10:04.560Z,0.4796
2023-04-09T12:11:06.076Z,0.4813
2023-04-09T12:12:08.680Z,0.4817
2023-04-09T12:13:09.370Z,0.4811
2023-04-09T12:14:11.033Z,0.4823
2023-04-09T12:15:12.806Z,0.4804
2023-04-09T12:16:14.577Z,0.4807
2023-04-09T12:17:15.963Z,0.4816
2023-04-09T12:18:17.693Z,0.4804
2023-04-09T12:19:19.333Z,0.4784
2023-04-09T12:20:21.209Z,0.4786
2023-04-09T12:21:22.572Z,0.4792
2023-04-09T12:22:24.226Z,0.4776
2023-04-09T12:23:25.987Z,0.4780
2023-04-09T12:24:27.571Z,0.4773
2023-04-09T12:25:29.271Z,0.4772
2023-04-09T12:26:30.831Z,0.4805
2023-04-09T12:27:33.886Z,0.4828
2023-04-09T12:28:34.160Z,0.4844
2023-04-09T12:29:35.809Z,0.4853
2023-04-09T12:30:37.498Z,0.4863
2023-04-09T12:31:39.150Z,0.4884
2023-04-09T12:32:40.883Z,0.4892
2023-04-09T12:33:42.472Z,0.4903
2023-04-09T12:34:44.150Z,0.4881
2023-04-09T12:35:46.164Z,0.4877
2023-04-09T12:36:47.425Z,0.4872
2023-04-09T12:37:49.010Z,0.4871
2023-04-09T12:38:50.997Z,0.4845
2023-04-09T12:39:52.368Z,0.4835
2023-04-09T12:40:54.038Z,0.4863
2023-04-09T12:41:55.745Z,0.4878
2023-04-09T12:42:57.295Z,0.4884
2023-04-09T12:43:59.005Z,0.4894
2023-04-09T12:45:00.685Z,0.4881
2023-04-09T12:46:02.427Z,0.4860
2023-04-09T12:47:03.915Z,0.4885
2023-04-09T12:48:05.604Z,0.4886
2023-04-09T12:49:07.216Z,0.4885